sensor_id;sensor_type;location;lat;lon;timestamp;P1;durP1;ratioP1;P2;durP2;ratioP2
22861;SDS011;11598;50.652;6.172;2022-12-07T00:04:55;597.80;;;37.75;;
22861;SDS011;11598;50.652;6.172;2022-12-07T00:14:56;411.20;;;29.77;;
22861;SDS011;11598;50.652;6.172;2022-12-07T00:24:56;470.05;;;32.58;;
22861;SDS011;11598;50.652;6.172;2022-12-07T00:34:56;590.35;;;37.28;;
22861;SDS011;11598;50.652;6.172;2022-12-07T00:44:57;297.67;;;26.77;;
22861;SDS011;11598;50.652;6.172;2022-12-07T00:54:57;639.00;;;41.05;;
22861;SDS011;11598;50.652;6.172;2022-12-07T01:04:57;495.33;;;34.00;;
22861;SDS011;11598;50.652;6.172;2022-12-07T01:14:58;544.97;;;41.15;;
22861;SDS011;11598;50.652;6.172;2022-12-07T01:24:58;445.80;;;32.72;;
22861;SDS011;11598;50.652;6.172;2022-12-07T01:34:58;701.38;;;44.55;;
22861;SDS011;11598;50.652;6.172;2022-12-07T01:55:17;371.55;;;29.17;;
22861;SDS011;11598;50.652;6.172;2022-12-07T02:05:19;730.92;;;47.28;;
22861;SDS011;11598;50.652;6.172;2022-12-07T02:15:20;499.25;;;37.85;;
22861;SDS011;11598;50.652;6.172;2022-12-07T02:46:18;693.90;;;47.58;;
22861;SDS011;11598;50.652;6.172;2022-12-07T03:06:49;731.60;;;48.78;;
22861;SDS011;11598;50.652;6.172;2022-12-07T03:27:02;501.75;;;39.88;;
22861;SDS011;11598;50.652;6.172;2022-12-07T03:37:08;480.10;;;37.05;;
22861;SDS011;11598;50.652;6.172;2022-12-07T03:57:43;604.97;;;38.85;;
22861;SDS011;11598;50.652;6.172;2022-12-07T04:07:46;608.65;;;42.50;;
22861;SDS011;11598;50.652;6.172;2022-12-07T04:17:47;821.30;;;49.13;;
22861;SDS011;11598;50.652;6.172;2022-12-07T04:27:48;844.50;;;48.83;;
22861;SDS011;11598;50.652;6.172;2022-12-07T04:37:48;856.38;;;54.08;;
22861;SDS011;11598;50.652;6.172;2022-12-07T04:47:49;662.20;;;42.78;;
22861;SDS011;11598;50.652;6.172;2022-12-07T04:57:49;731.78;;;51.92;;
22861;SDS011;11598;50.652;6.172;2022-12-07T05:07:50;697.25;;;46.45;;
22861;SDS011;11598;50.652;6.172;2022-12-07T05:17:50;959.20;;;56.50;;
22861;SDS011;11598;50.652;6.172;2022-12-07T05:27:52;744.83;;;47.33;;
22861;SDS011;11598;50.652;6.172;2022-12-07T05:37:52;838.65;;;53.53;;
22861;SDS011;11598;50.652;6.172;2022-12-07T05:47:53;885.75;;;50.15;;
22861;SDS011;11598;50.652;6.172;2022-12-07T05:57:53;688.42;;;45.25;;
22861;SDS011;11598;50.652;6.172;2022-12-07T06:08:13;250.48;;;25.67;;
22861;SDS011;11598;50.652;6.172;2022-12-07T06:18:14;99.35;;;20.55;;
22861;SDS011;11598;50.652;6.172;2022-12-07T06:28:15;114.28;;;21.17;;
22861;SDS011;11598;50.652;6.172;2022-12-07T06:38:15;274.52;;;23.55;;
22861;SDS011;11598;50.652;6.172;2022-12-07T06:48:15;515.95;;;34.33;;
22861;SDS011;11598;50.652;6.172;2022-12-07T06:58:16;759.60;;;44.88;;
22861;SDS011;11598;50.652;6.172;2022-12-07T07:08:17;469.25;;;30.90;;
22861;SDS011;11598;50.652;6.172;2022-12-07T07:18:19;405.48;;;30.17;;
22861;SDS011;11598;50.652;6.172;2022-12-07T07:28:19;510.50;;;33.95;;
22861;SDS011;11598;50.652;6.172;2022-12-07T07:38:19;814.55;;;41.00;;
22861;SDS011;11598;50.652;6.172;2022-12-07T07:48:20;523.58;;;33.65;;
22861;SDS011;11598;50.652;6.172;2022-12-07T07:58:22;505.23;;;33.97;;
22861;SDS011;11598;50.652;6.172;2022-12-07T08:08:23;98.00;;;15.80;;
22861;SDS011;11598;50.652;6.172;2022-12-07T08:18:23;71.45;;;12.68;;
22861;SDS011;11598;50.652;6.172;2022-12-07T08:28:23;163.25;;;18.75;;
22861;SDS011;11598;50.652;6.172;2022-12-07T08:38:24;150.05;;;16.60;;
22861;SDS011;11598;50.652;6.172;2022-12-07T08:48:24;110.22;;;18.27;;
22861;SDS011;11598;50.652;6.172;2022-12-07T08:58:25;84.28;;;17.75;;
22861;SDS011;11598;50.652;6.172;2022-12-07T09:08:28;173.27;;;20.88;;
22861;SDS011;11598;50.652;6.172;2022-12-07T09:18:32;104.85;;;19.30;;
22861;SDS011;11598;50.652;6.172;2022-12-07T09:28:33;105.25;;;21.27;;
22861;SDS011;11598;50.652;6.172;2022-12-07T09:38:33;81.80;;;20.97;;
22861;SDS011;11598;50.652;6.172;2022-12-07T09:48:34;80.63;;;20.08;;
22861;SDS011;11598;50.652;6.172;2022-12-07T09:58:38;181.20;;;26.70;;
22861;SDS011;11598;50.652;6.172;2022-12-07T10:08:39;56.25;;;19.90;;
22861;SDS011;11598;50.652;6.172;2022-12-07T10:18:41;64.20;;;18.47;;
22861;SDS011;11598;50.652;6.172;2022-12-07T10:28:41;124.63;;;21.60;;
22861;SDS011;11598;50.652;6.172;2022-12-07T10:38:46;200.63;;;24.15;;
22861;SDS011;11598;50.652;6.172;2022-12-07T11:09:52;332.27;;;30.25;;
22861;SDS011;11598;50.652;6.172;2022-12-07T11:40:20;145.20;;;25.10;;
22861;SDS011;11598;50.652;6.172;2022-12-07T12:00:37;50.45;;;18.23;;
22861;SDS011;11598;50.652;6.172;2022-12-07T12:20:57;50.75;;;20.30;;
22861;SDS011;11598;50.652;6.172;2022-12-07T12:51:36;45.03;;;17.92;;
22861;SDS011;11598;50.652;6.172;2022-12-07T13:01:40;35.85;;;12.05;;
22861;SDS011;11598;50.652;6.172;2022-12-07T13:11:43;34.05;;;12.93;;
22861;SDS011;11598;50.652;6.172;2022-12-07T13:21:45;36.33;;;15.13;;
22861;SDS011;11598;50.652;6.172;2022-12-07T13:31:46;48.40;;;15.30;;
22861;SDS011;11598;50.652;6.172;2022-12-07T13:41:55;56.15;;;15.45;;
22861;SDS011;11598;50.652;6.172;2022-12-07T14:02:32;40.20;;;15.35;;
22861;SDS011;11598;50.652;6.172;2022-12-07T14:12:35;39.10;;;17.70;;
22861;SDS011;11598;50.652;6.172;2022-12-07T14:22:37;41.38;;;15.95;;
22861;SDS011;11598;50.652;6.172;2022-12-07T14:32:38;84.72;;;18.23;;
22861;SDS011;11598;50.652;6.172;2022-12-07T14:42:40;55.67;;;16.73;;
22861;SDS011;11598;50.652;6.172;2022-12-07T14:52:43;31.40;;;15.15;;
22861;SDS011;11598;50.652;6.172;2022-12-07T15:02:47;42.25;;;13.98;;
22861;SDS011;11598;50.652;6.172;2022-12-07T15:12:49;36.45;;;14.32;;
22861;SDS011;11598;50.652;6.172;2022-12-07T15:22:49;58.63;;;14.15;;
22861;SDS011;11598;50.652;6.172;2022-12-07T15:32:50;36.10;;;14.73;;
22861;SDS011;11598;50.652;6.172;2022-12-07T15:42:51;41.67;;;14.95;;
22861;SDS011;11598;50.652;6.172;2022-12-07T15:52:52;33.15;;;13.68;;
22861;SDS011;11598;50.652;6.172;2022-12-07T16:02:52;27.20;;;12.05;;
22861;SDS011;11598;50.652;6.172;2022-12-07T16:12:52;38.03;;;11.75;;
22861;SDS011;11598;50.652;6.172;2022-12-07T16:22:53;39.13;;;11.80;;
22861;SDS011;11598;50.652;6.172;2022-12-07T16:32:53;25.35;;;14.07;;
22861;SDS011;11598;50.652;6.172;2022-12-07T16:42:53;33.85;;;15.80;;
22861;SDS011;11598;50.652;6.172;2022-12-07T16:52:54;33.05;;;15.48;;
22861;SDS011;11598;50.652;6.172;2022-12-07T17:02:54;53.78;;;15.32;;
22861;SDS011;11598;50.652;6.172;2022-12-07T17:12:55;36.05;;;16.40;;
22861;SDS011;11598;50.652;6.172;2022-12-07T17:22:55;107.53;;;19.95;;
22861;SDS011;11598;50.652;6.172;2022-12-07T17:32:55;81.72;;;19.88;;
22861;SDS011;11598;50.652;6.172;2022-12-07T17:42:56;192.55;;;22.60;;
22861;SDS011;11598;50.652;6.172;2022-12-07T17:52:56;58.90;;;23.15;;
22861;SDS011;11598;50.652;6.172;2022-12-07T18:03:12;150.40;;;24.48;;
22861;SDS011;11598;50.652;6.172;2022-12-07T18:13:12;38.47;;;20.17;;
22861;SDS011;11598;50.652;6.172;2022-12-07T18:23:31;60.13;;;18.38;;
22861;SDS011;11598;50.652;6.172;2022-12-07T18:33:32;57.33;;;20.23;;
22861;SDS011;11598;50.652;6.172;2022-12-07T18:43:33;56.35;;;18.95;;
22861;SDS011;11598;50.652;6.172;2022-12-07T18:53:33;78.63;;;18.75;;
22861;SDS011;11598;50.652;6.172;2022-12-07T19:03:35;39.38;;;15.15;;
22861;SDS011;11598;50.652;6.172;2022-12-07T19:13:35;43.42;;;13.57;;
22861;SDS011;11598;50.652;6.172;2022-12-07T19:23:35;63.25;;;15.63;;
22861;SDS011;11598;50.652;6.172;2022-12-07T19:33:36;89.55;;;18.33;;
22861;SDS011;11598;50.652;6.172;2022-12-07T19:43:37;220.13;;;22.02;;
22861;SDS011;11598;50.652;6.172;2022-12-07T19:53:37;221.32;;;20.23;;
22861;SDS011;11598;50.652;6.172;2022-12-07T20:03:38;114.63;;;19.48;;
22861;SDS011;11598;50.652;6.172;2022-12-07T20:13:38;127.68;;;20.20;;
22861;SDS011;11598;50.652;6.172;2022-12-07T20:23:39;107.32;;;19.35;;
22861;SDS011;11598;50.652;6.172;2022-12-07T20:33:39;83.78;;;18.48;;
22861;SDS011;11598;50.652;6.172;2022-12-07T20:43:40;67.97;;;19.10;;
22861;SDS011;11598;50.652;6.172;2022-12-07T20:53:42;51.20;;;15.50;;
22861;SDS011;11598;50.652;6.172;2022-12-07T21:03:42;132.15;;;21.92;;
22861;SDS011;11598;50.652;6.172;2022-12-07T21:13:42;61.83;;;17.50;;
22861;SDS011;11598;50.652;6.172;2022-12-07T21:23:47;53.58;;;18.27;;
22861;SDS011;11598;50.652;6.172;2022-12-07T21:33:49;44.30;;;15.35;;
22861;SDS011;11598;50.652;6.172;2022-12-07T21:43:50;34.70;;;17.30;;
22861;SDS011;11598;50.652;6.172;2022-12-07T21:53:52;45.47;;;19.05;;
22861;SDS011;11598;50.652;6.172;2022-12-07T22:03:58;73.90;;;19.37;;
22861;SDS011;11598;50.652;6.172;2022-12-07T22:24:01;50.97;;;17.58;;
22861;SDS011;11598;50.652;6.172;2022-12-07T22:34:02;42.80;;;14.20;;
22861;SDS011;11598;50.652;6.172;2022-12-07T22:44:04;45.63;;;15.25;;
22861;SDS011;11598;50.652;6.172;2022-12-07T22:54:07;39.72;;;14.73;;
22861;SDS011;11598;50.652;6.172;2022-12-07T23:04:09;32.05;;;14.55;;
22861;SDS011;11598;50.652;6.172;2022-12-07T23:14:11;34.67;;;15.55;;
22861;SDS011;11598;50.652;6.172;2022-12-07T23:24:14;69.88;;;18.55;;
22861;SDS011;11598;50.652;6.172;2022-12-07T23:34:14;153.13;;;23.00;;
22861;SDS011;11598;50.652;6.172;2022-12-07T23:44:16;146.73;;;20.80;;
22861;SDS011;11598;50.652;6.172;2022-12-07T23:54:17;279.95;;;24.48;;
